createdAt,value
2023-03-23T15:58:23.477Z,100744.69
2023-03-23T16:00:53.419Z,100755.22
2023-03-23T16:03:27.760Z,100754.09
2023-03-23T16:05:57.779Z,100754.41
2023-03-23T16:08:27.613Z,100760.09
2023-03-23T16:10:55.840Z,100758.41
2023-03-23T16:13:24.393Z,100759.13
2023-03-23T16:15:52.550Z,100757.91
2023-03-23T16:18:22.993Z,100760.22
2023-03-23T16:20:51.374Z,100764.91
2023-03-23T16:23:19.652Z,100757.88
2023-03-23T16:25:47.195Z,100765.03
2023-03-23T16:28:15.556Z,100768.69
2023-03-23T16:30:45.618Z,100765.53
2023-03-23T16:33:13.961Z,100775.19
2023-03-23T16:35:42.925Z,100767.72
2023-03-23T16:38:16.415Z,100773.69
2023-03-23T16:40:46.053Z,100770.66
2023-03-23T16:43:14.565Z,100768.91
2023-03-23T16:45:44.786Z,100772.41
2023-03-23T16:48:16.059Z,100766.56
2023-03-23T16:50:45.546Z,100768.69
2023-03-23T16:53:13.210Z,100772.28
2023-03-23T16:55:42.224Z,100783.28
2023-03-23T16:58:16.884Z,100784.34
2023-03-23T17:00:49.503Z,100787.22
2023-03-23T17:03:19.576Z,100789.75
2023-03-23T17:05:51.719Z,100796.09
2023-03-23T17:08:21.117Z,100795.78
2023-03-23T17:10:49.135Z,100802.28
2023-03-23T17:13:18.127Z,100799.94
2023-03-23T17:15:47.645Z,100796.63
2023-03-23T17:18:16.634Z,100807.44
2023-03-23T17:20:44.855Z,100802.47
2023-03-23T17:23:13.400Z,100801.47
2023-03-23T17:25:42.554Z,100801.94
2023-03-23T17:28:10.694Z,100814.97
2023-03-23T17:30:44.161Z,100816.47
2023-03-23T17:33:12.978Z,100817.09
2023-03-23T17:35:42.120Z,100824.75
2023-03-23T17:38:09.999Z,100824.25
2023-03-23T17:40:38.571Z,100829.41
2023-03-23T17:43:07.153Z,100823.53
2023-03-23T17:45:36.590Z,100834.03
2023-03-23T17:48:07.918Z,100828.81
2023-03-23T17:50:36.823Z,100837.59
2023-03-23T17:53:04.637Z,100842.66
2023-03-23T17:55:32.318Z,100838.53
2023-03-23T17:58:00.792Z,100839.75
2023-03-23T18:00:28.792Z,100843.91
2023-03-23T18:02:57.126Z,100851.22
2023-03-23T18:05:27.862Z,100850.06
2023-03-23T18:07:55.876Z,100854.88
2023-03-23T18:10:23.820Z,100851.69
2023-03-23T18:12:52.603Z,100851.28
2023-03-23T18:15:20.830Z,100856.03
2023-03-23T18:17:51.192Z,100858.00
2023-03-23T18:20:19.747Z,100858.38
2023-03-23T18:22:49.316Z,100852.72
2023-03-23T18:25:17.368Z,100856.28
2023-03-23T18:27:46.381Z,100859.53
2023-03-23T18:30:14.668Z,100864.34
2023-03-23T18:32:42.916Z,100877.69
2023-03-23T18:35:11.340Z,100875.25
2023-03-23T18:37:39.750Z,100877.53
2023-03-23T18:40:12.807Z,100873.50
2023-03-23T18:42:45.074Z,100878.88
2023-03-23T18:45:13.498Z,100883.09
2023-03-23T18:47:41.700Z,100889.81
2023-03-23T18:50:11.608Z,100892.06
2023-03-23T18:52:40.348Z,100887.75
2023-03-23T18:55:09.363Z,100894.19
2023-03-23T18:57:40.320Z,100900.50
2023-03-23T19:00:10.147Z,100896.72
2023-03-23T19:02:39.698Z,100901.84
2023-03-23T19:05:08.697Z,100907.56
2023-03-23T19:07:38.497Z,100904.03
2023-03-23T19:10:06.613Z,100908.75
2023-03-23T19:12:34.690Z,100907.94
2023-03-23T19:15:02.891Z,100909.09
2023-03-23T19:17:31.166Z,100904.94
2023-03-23T19:19:59.974Z,100915.84
2023-03-23T19:22:28.289Z,100907.44
2023-03-23T19:24:56.271Z,100908.03
2023-03-23T19:27:24.489Z,100920.41
2023-03-23T19:29:52.648Z,100915.00
2023-03-23T19:32:21.022Z,100913.06
2023-03-23T19:34:51.252Z,100916.59
2023-03-23T19:37:19.299Z,100919.22
2023-03-23T19:39:47.102Z,100916.44
2023-03-23T19:42:18.516Z,100921.78
2023-03-23T19:44:47.507Z,100928.34
2023-03-23T19:47:16.451Z,100921.59
2023-03-23T19:49:44.952Z,100925.81
2023-03-23T19:52:14.999Z,100931.84
2023-03-23T19:54:45.350Z,100934.34
2023-03-23T19:57:14.296Z,100929.03
2023-03-23T19:59:42.840Z,100938.22
2023-03-23T20:02:13.693Z,100928.47
2023-03-23T20:04:43.718Z,100938.41
2023-03-23T20:07:12.874Z,100936.84
2023-03-23T20:09:41.188Z,100931.53
2023-03-23T20:12:09.966Z,100934.75
2023-03-23T20:14:44.121Z,100941.69
2023-03-23T20:17:14.580Z,100938.75
2023-03-23T20:19:43.437Z,100937.88
2023-03-23T20:22:11.940Z,100946.13
2023-03-23T20:24:40.149Z,100957.53
2023-03-23T20:27:08.171Z,100954.91
2023-03-23T20:29:36.520Z,100956.44
2023-03-23T20:32:04.202Z,100958.84
2023-03-23T20:34:32.298Z,100961.78
2023-03-23T20:37:02.751Z,100958.03
2023-03-23T20:39:33.557Z,100963.59
2023-03-23T20:42:04.418Z,100964.41
2023-03-23T20:44:35.492Z,100971.94
2023-03-23T20:47:04.702Z,100966.91
2023-03-23T20:49:34.859Z,100980.75
2023-03-23T20:52:04.368Z,100970.53
2023-03-23T20:54:32.305Z,100972.34
2023-03-23T20:57:01.210Z,100974.53
2023-03-23T20:59:29.669Z,100975.28
2023-03-23T21:01:57.254Z,100974.25
2023-03-23T21:04:27.626Z,100980.56
2023-03-23T21:06:56.096Z,100976.59
2023-03-23T21:09:25.514Z,100985.34
2023-03-23T21:11:54.363Z,100981.81
2023-03-23T21:14:22.017Z,100983.69
2023-03-23T21:16:50.656Z,100980.66
2023-03-23T21:19:20.150Z,100985.16
2023-03-23T21:21:56.850Z,100988.75
2023-03-23T21:24:29.619Z,100983.31
2023-03-23T21:27:00.494Z,100994.28
2023-03-23T21:29:29.324Z,100988.34
2023-03-23T21:34:29.057Z,100975.34
2023-03-23T21:36:57.192Z,100989.88
2023-03-23T21:39:24.950Z,100988.59
2023-03-23T21:41:53.075Z,100991.00
2023-03-23T21:44:21.664Z,100984.78
2023-03-23T21:46:52.491Z,100977.78
2023-03-23T21:49:20.785Z,100976.03
2023-03-23T21:51:49.646Z,100978.59
2023-03-23T21:54:17.684Z,100973.38
2023-03-23T21:56:45.266Z,100965.97
2023-03-23T21:59:13.521Z,100966.53
2023-03-23T22:01:41.654Z,100969.38
2023-03-23T22:04:28.052Z,100972.53
2023-03-23T22:07:15.375Z,100977.75
2023-03-23T22:09:45.036Z,100976.22
2023-03-23T22:12:13.349Z,100969.63
2023-03-23T22:14:41.840Z,100963.84
2023-03-23T22:17:09.689Z,100966.09
2023-03-23T22:19:39.468Z,100961.44
2023-03-23T22:22:07.590Z,100956.47
2023-03-23T22:24:36.076Z,100967.31
2023-03-23T22:27:04.351Z,100972.75
2023-03-23T22:29:32.379Z,100980.63
2023-03-23T22:32:00.481Z,100974.59
2023-03-23T22:34:28.700Z,100959.41
2023-03-23T22:36:57.058Z,100962.97
2023-03-23T22:39:25.962Z,100973.97
2023-03-23T22:41:53.630Z,100972.53
2023-03-23T22:44:21.280Z,100968.59
2023-03-23T22:46:49.114Z,100963.41
2023-03-23T22:49:17.238Z,100961.72
2023-03-23T22:51:45.716Z,100960.66
2023-03-23T22:54:13.744Z,100963.53
2023-03-23T22:56:41.827Z,100968.09
2023-03-23T22:59:11.112Z,100977.22
2023-03-23T23:01:39.475Z,100966.50
2023-03-23T23:04:07.770Z,100977.06
2023-03-23T23:06:35.787Z,100974.66
2023-03-23T23:09:03.919Z,100962.50
2023-03-23T23:11:31.602Z,100965.50
2023-03-23T23:13:59.339Z,100971.69
2023-03-23T23:16:29.360Z,100973.16
2023-03-23T23:18:57.889Z,100963.84
2023-03-23T23:21:26.841Z,100959.72
2023-03-23T23:23:55.091Z,100966.41
2023-03-23T23:26:23.260Z,100958.75
2023-03-23T23:28:51.680Z,100963.41
2023-03-23T23:31:29.332Z,100955.81
2023-03-23T23:33:59.840Z,100945.75
2023-03-23T23:36:30.332Z,100929.44
2023-03-23T23:39:00.688Z,100956.25
2023-03-23T23:41:30.278Z,100952.91
2023-03-23T23:43:58.374Z,100954.66
2023-03-23T23:46:26.735Z,100955.38
2023-03-23T23:48:54.508Z,100952.59
2023-03-23T23:51:27.256Z,100962.09
2023-03-23T23:53:59.276Z,100966.41
2023-03-23T23:56:28.351Z,100958.97
2023-03-23T23:58:57.173Z,100959.31
